CEB640 RPVP-RPLL
Flight info
| Callsign | CEB640 |
|---|---|
| Flight time | 0h 55m |
| Altitude | 33000 |
| Route | DABOY1E DABOY W281 LEGED N884 LUBAN LUBAN1A |
| Aircraft | A20N/M-SDE2E3FGHIRWXY/LB1 |
Departure
| Time | 2026-05-05 12:54 |
|---|---|
| Airport | Puerto Princesa International Airport / PAF Antonio Bautista Air Base (RPVP) |
Arrival
| Time | 2026-05-05 13:50 |
|---|---|
| Airport | Ninoy Aquino International Airport (RPLL) |
| Time | Latitude | Longitude | Altitude | Speed | Heading |
|---|---|---|---|---|---|
| 2026-05-05 12:39 | 9.74506 | 118.75117 | 75 ft | 0 kts | 3° |
| 2026-05-05 12:46 | 9.74498 | 118.75116 | 75 ft | 2 kts | 3° |
| 2026-05-05 12:47 | 9.74483 | 118.75115 | 75 ft | 2 kts | 3° |
| 2026-05-05 12:47 | 9.74468 | 118.75114 | 75 ft | 2 kts | 3° |
| 2026-05-05 12:47 | 9.74453 | 118.75114 | 75 ft | 2 kts | 3° |
| 2026-05-05 12:47 | 9.74438 | 118.75113 | 75 ft | 2 kts | 3° |
| 2026-05-05 12:48 | 9.74428 | 118.75113 | 75 ft | 1 kts | 4° |
| 2026-05-05 12:48 | 9.74415 | 118.75116 | 75 ft | 2 kts | 315° |
| 2026-05-05 12:48 | 9.74409 | 118.75127 | 75 ft | 0 kts | 277° |
| 2026-05-05 12:48 | 9.74409 | 118.75133 | 75 ft | 1 kts | 271° |
| 2026-05-05 12:49 | 9.74408 | 118.75135 | 75 ft | 0 kts | 272° |
| 2026-05-05 12:50 | 9.74409 | 118.75133 | 75 ft | 0 kts | 272° |
| 2026-05-05 12:51 | 9.74409 | 118.75127 | 75 ft | 1 kts | 272° |
| 2026-05-05 12:51 | 9.74410 | 118.75110 | 75 ft | 3 kts | 273° |
| 2026-05-05 12:51 | 9.74411 | 118.75083 | 75 ft | 4 kts | 273° |
| 2026-05-05 12:51 | 9.74413 | 118.75047 | 75 ft | 5 kts | 272° |
| 2026-05-05 12:52 | 9.74415 | 118.75002 | 75 ft | 7 kts | 272° |
| 2026-05-05 12:52 | 9.74417 | 118.74947 | 75 ft | 8 kts | 272° |
| 2026-05-05 12:52 | 9.74419 | 118.74882 | 75 ft | 9 kts | 272° |
| 2026-05-05 12:52 | 9.74422 | 118.74810 | 75 ft | 10 kts | 272° |
| 2026-05-05 12:53 | 9.74415 | 118.74733 | 75 ft | 11 kts | 242° |
| 2026-05-05 12:53 | 9.74341 | 118.74706 | 75 ft | 12 kts | 182° |
| 2026-05-05 12:53 | 9.74261 | 118.74723 | 75 ft | 12 kts | 133° |
| 2026-05-05 12:53 | 9.74255 | 118.74805 | 75 ft | 12 kts | 92° |
| 2026-05-05 12:54 | 9.74211 | 118.75819 | 76 ft | 138 kts | 93° |
| 2026-05-05 12:54 | 9.74160 | 118.76886 | 418 ft | 155 kts | 94° |
| 2026-05-05 12:54 | 9.74095 | 118.77976 | 967 ft | 157 kts | 94° |
| 2026-05-05 12:55 | 9.74193 | 118.79063 | 1510 ft | 160 kts | 63° |
| 2026-05-05 12:55 | 9.75056 | 118.79727 | 2110 ft | 164 kts | 19° |
| 2026-05-05 12:55 | 9.76175 | 118.79956 | 2763 ft | 165 kts | 12° |
| 2026-05-05 12:55 | 9.77312 | 118.80144 | 3371 ft | 168 kts | 13° |
| 2026-05-05 12:56 | 9.78494 | 118.80383 | 3812 ft | 182 kts | 15° |
| 2026-05-05 12:56 | 9.79795 | 118.80696 | 4228 ft | 201 kts | 17° |
| 2026-05-05 12:56 | 9.81221 | 118.81070 | 4623 ft | 223 kts | 17° |
| 2026-05-05 12:56 | 9.82779 | 118.81494 | 5117 ft | 243 kts | 18° |
| 2026-05-05 12:57 | 9.84445 | 118.81953 | 5833 ft | 252 kts | 18° |
| 2026-05-05 12:57 | 9.86132 | 118.82420 | 6672 ft | 254 kts | 18° |
| 2026-05-05 12:57 | 9.87852 | 118.82896 | 7522 ft | 257 kts | 16° |
| 2026-05-05 12:57 | 9.89612 | 118.83205 | 8303 ft | 262 kts | 7° |
| 2026-05-05 12:58 | 9.91485 | 118.83262 | 8873 ft | 276 kts | 1° |
| 2026-05-05 12:58 | 9.93455 | 118.83212 | 9389 ft | 290 kts | 359° |
| 2026-05-05 12:58 | 9.95502 | 118.83138 | 10112 ft | 295 kts | 359° |
| 2026-05-05 12:58 | 9.97558 | 118.83067 | 10698 ft | 304 kts | 359° |
| 2026-05-05 12:59 | 9.99735 | 118.82995 | 11062 ft | 322 kts | 359° |
| 2026-05-05 12:59 | 10.02055 | 118.82922 | 11371 ft | 340 kts | 359° |
| 2026-05-05 12:59 | 10.04503 | 118.82848 | 11656 ft | 357 kts | 359° |
| 2026-05-05 13:00 | 10.09608 | 118.82691 | 12702 ft | 371 kts | 359° |
| 2026-05-05 13:00 | 10.12174 | 118.82614 | 13319 ft | 374 kts | 360° |
| 2026-05-05 13:01 | 10.20111 | 118.82378 | 15025 ft | 384 kts | 360° |
| 2026-05-05 13:01 | 10.22782 | 118.82299 | 15546 ft | 388 kts | 0° |
| 2026-05-05 13:01 | 10.25482 | 118.82219 | 16055 ft | 391 kts | 360° |
| 2026-05-05 13:01 | 10.28243 | 118.82137 | 16567 ft | 395 kts | 0° |
| 2026-05-05 13:02 | 10.30994 | 118.82054 | 17054 ft | 398 kts | 0° |
| 2026-05-05 13:02 | 10.33796 | 118.81970 | 17540 ft | 401 kts | 0° |
| 2026-05-05 13:02 | 10.36591 | 118.81889 | 18015 ft | 404 kts | 0° |
| 2026-05-05 13:02 | 10.39405 | 118.81812 | 18465 ft | 407 kts | 1° |
| 2026-05-05 13:03 | 10.42269 | 118.81861 | 18907 ft | 409 kts | 4° |
| 2026-05-05 13:03 | 10.45131 | 118.82040 | 19342 ft | 412 kts | 5° |
| 2026-05-05 13:03 | 10.48050 | 118.82244 | 19780 ft | 415 kts | 5° |
| 2026-05-05 13:03 | 10.50949 | 118.82451 | 20220 ft | 418 kts | 5° |
| 2026-05-05 13:04 | 10.53856 | 118.82658 | 20652 ft | 420 kts | 5° |
| 2026-05-05 13:04 | 10.56777 | 118.82864 | 21081 ft | 423 kts | 5° |
| 2026-05-05 13:04 | 10.59760 | 118.83076 | 21507 ft | 426 kts | 5° |
| 2026-05-05 13:04 | 10.62769 | 118.83288 | 21925 ft | 428 kts | 5° |
| 2026-05-05 13:05 | 10.65757 | 118.83498 | 22325 ft | 431 kts | 5° |
| 2026-05-05 13:05 | 10.68779 | 118.83710 | 22726 ft | 434 kts | 5° |
| 2026-05-05 13:05 | 10.71837 | 118.83924 | 23136 ft | 437 kts | 5° |
| 2026-05-05 13:05 | 10.74889 | 118.84139 | 23545 ft | 440 kts | 5° |
| 2026-05-05 13:06 | 10.77959 | 118.84353 | 23940 ft | 442 kts | 5° |
| 2026-05-05 13:06 | 10.81047 | 118.84570 | 24326 ft | 445 kts | 4° |
| 2026-05-05 13:06 | 10.84140 | 118.84788 | 24706 ft | 448 kts | 5° |
| 2026-05-05 13:06 | 10.87289 | 118.85008 | 25077 ft | 450 kts | 4° |
| 2026-05-05 13:07 | 10.90405 | 118.85227 | 25441 ft | 453 kts | 4° |
| 2026-05-05 13:07 | 10.93567 | 118.85449 | 25806 ft | 455 kts | 4° |
| 2026-05-05 13:07 | 10.96747 | 118.85673 | 26159 ft | 458 kts | 4° |
| 2026-05-05 13:07 | 10.99947 | 118.85897 | 26497 ft | 460 kts | 4° |
| 2026-05-05 13:08 | 11.03158 | 118.86123 | 26834 ft | 462 kts | 4° |
| 2026-05-05 13:08 | 11.06398 | 118.86351 | 27277 ft | 462 kts | 4° |
| 2026-05-05 13:08 | 11.09583 | 118.86575 | 27763 ft | 460 kts | 4° |
| 2026-05-05 13:08 | 11.12777 | 118.86800 | 28221 ft | 458 kts | 4° |
| 2026-05-05 13:09 | 11.15989 | 118.87028 | 28655 ft | 457 kts | 4° |
| 2026-05-05 13:09 | 11.19157 | 118.87252 | 29079 ft | 456 kts | 4° |
| 2026-05-05 13:09 | 11.22324 | 118.87476 | 29501 ft | 455 kts | 4° |
| 2026-05-05 13:09 | 11.25483 | 118.87697 | 29912 ft | 454 kts | 4° |
| 2026-05-05 13:10 | 11.28646 | 118.87918 | 30321 ft | 453 kts | 4° |
| 2026-05-05 13:10 | 11.31818 | 118.88142 | 30725 ft | 452 kts | 4° |
| 2026-05-05 13:10 | 11.34953 | 118.88363 | 31114 ft | 451 kts | 4° |
| 2026-05-05 13:10 | 11.38105 | 118.88584 | 31457 ft | 451 kts | 4° |
| 2026-05-05 13:11 | 11.41263 | 118.88807 | 31589 ft | 452 kts | 4° |
| 2026-05-05 13:11 | 11.44406 | 118.89029 | 31719 ft | 453 kts | 4° |
| 2026-05-05 13:11 | 11.47560 | 118.89252 | 31851 ft | 453 kts | 4° |
| 2026-05-05 13:11 | 11.50702 | 118.89473 | 31985 ft | 454 kts | 3° |
| 2026-05-05 13:12 | 11.53861 | 118.89696 | 32116 ft | 454 kts | 4° |
| 2026-05-05 13:12 | 11.57064 | 118.89922 | 32250 ft | 455 kts | 3° |
| 2026-05-05 13:12 | 11.60231 | 118.90145 | 32387 ft | 456 kts | 3° |
| 2026-05-05 13:12 | 11.63439 | 118.90372 | 32522 ft | 456 kts | 3° |
| 2026-05-05 13:13 | 11.66633 | 118.90597 | 32663 ft | 456 kts | 3° |
| 2026-05-05 13:13 | 11.69787 | 118.90820 | 32809 ft | 456 kts | 4° |
| 2026-05-05 13:13 | 11.76150 | 118.91269 | 32853 ft | 457 kts | 3° |
| 2026-05-05 13:14 | 11.82522 | 118.91720 | 32853 ft | 456 kts | 3° |
| 2026-05-05 13:14 | 11.88847 | 118.92167 | 32853 ft | 456 kts | 3° |
| 2026-05-05 13:15 | 11.95213 | 118.92617 | 32855 ft | 456 kts | 3° |
| 2026-05-05 13:15 | 12.01542 | 118.93066 | 32857 ft | 456 kts | 3° |
| 2026-05-05 13:16 | 12.07897 | 118.93515 | 32865 ft | 457 kts | 3° |
| 2026-05-05 13:16 | 12.14305 | 118.93970 | 32871 ft | 457 kts | 3° |
| 2026-05-05 13:17 | 12.20630 | 118.94418 | 32872 ft | 456 kts | 3° |
| 2026-05-05 13:17 | 12.26978 | 118.94868 | 32872 ft | 456 kts | 3° |
| 2026-05-05 13:18 | 12.33301 | 118.95316 | 32872 ft | 456 kts | 3° |
| 2026-05-05 13:18 | 12.39706 | 118.95773 | 32872 ft | 456 kts | 3° |
| 2026-05-05 13:19 | 12.46014 | 118.96220 | 32872 ft | 456 kts | 3° |
| 2026-05-05 13:19 | 12.52353 | 118.96671 | 32872 ft | 455 kts | 3° |
| 2026-05-05 13:20 | 12.58708 | 118.97121 | 32872 ft | 455 kts | 3° |
| 2026-05-05 13:20 | 12.65053 | 118.97573 | 32872 ft | 455 kts | 3° |
| 2026-05-05 13:21 | 12.71352 | 118.98022 | 32872 ft | 455 kts | 3° |
| 2026-05-05 13:21 | 12.77675 | 118.98472 | 32872 ft | 455 kts | 3° |
| 2026-05-05 13:22 | 12.84037 | 118.98925 | 32872 ft | 454 kts | 3° |
| 2026-05-05 13:22 | 12.90361 | 118.99375 | 32872 ft | 454 kts | 3° |
| 2026-05-05 13:23 | 12.96582 | 119.00407 | 32871 ft | 455 kts | 16° |
| 2026-05-05 13:23 | 13.02343 | 119.03053 | 32872 ft | 456 kts | 31° |
| 2026-05-05 13:24 | 13.07259 | 119.07175 | 32872 ft | 457 kts | 46° |
| 2026-05-05 13:24 | 13.11257 | 119.12234 | 32873 ft | 457 kts | 51° |
| 2026-05-05 13:25 | 13.15136 | 119.17409 | 32866 ft | 457 kts | 51° |
| 2026-05-05 13:25 | 13.19024 | 119.22574 | 32855 ft | 457 kts | 51° |
| 2026-05-05 13:26 | 13.22905 | 119.27711 | 32859 ft | 457 kts | 51° |
| 2026-05-05 13:26 | 13.26815 | 119.32880 | 32857 ft | 457 kts | 51° |
| 2026-05-05 13:27 | 13.30706 | 119.38026 | 32855 ft | 457 kts | 51° |
| 2026-05-05 13:27 | 13.34601 | 119.43180 | 32853 ft | 457 kts | 51° |
| 2026-05-05 13:28 | 13.38499 | 119.48341 | 32854 ft | 457 kts | 51° |
| 2026-05-05 13:28 | 13.42398 | 119.53507 | 32128 ft | 460 kts | 51° |
| 2026-05-05 13:29 | 13.44351 | 119.56093 | 31422 ft | 460 kts | 51° |
| 2026-05-05 13:29 | 13.46302 | 119.58678 | 30687 ft | 460 kts | 51° |
| 2026-05-05 13:29 | 13.48266 | 119.61282 | 29929 ft | 460 kts | 51° |
| 2026-05-05 13:29 | 13.50219 | 119.63870 | 29162 ft | 461 kts | 52° |
| 2026-05-05 13:30 | 13.52188 | 119.66480 | 28381 ft | 461 kts | 52° |
| 2026-05-05 13:30 | 13.54153 | 119.69087 | 27587 ft | 463 kts | 52° |
| 2026-05-05 13:30 | 13.56114 | 119.71690 | 26773 ft | 464 kts | 52° |
| 2026-05-05 13:30 | 13.58087 | 119.74311 | 25946 ft | 465 kts | 52° |
| 2026-05-05 13:31 | 13.60057 | 119.76929 | 25389 ft | 459 kts | 52° |
| 2026-05-05 13:31 | 13.61978 | 119.79483 | 24857 ft | 453 kts | 52° |
| 2026-05-05 13:31 | 13.63903 | 119.82042 | 24315 ft | 447 kts | 53° |
| 2026-05-05 13:31 | 13.65771 | 119.84526 | 23777 ft | 442 kts | 53° |
| 2026-05-05 13:32 | 13.67647 | 119.87023 | 23232 ft | 437 kts | 53° |
| 2026-05-05 13:32 | 13.69500 | 119.89488 | 22692 ft | 435 kts | 53° |
| 2026-05-05 13:32 | 13.71374 | 119.91984 | 22139 ft | 445 kts | 53° |
| 2026-05-05 13:32 | 13.73264 | 119.94501 | 21592 ft | 444 kts | 53° |
| 2026-05-05 13:33 | 13.75148 | 119.97012 | 21034 ft | 441 kts | 53° |
| 2026-05-05 13:33 | 13.76994 | 119.99473 | 20482 ft | 437 kts | 53° |
| 2026-05-05 13:33 | 13.78856 | 120.01956 | 19916 ft | 433 kts | 53° |
| 2026-05-05 13:33 | 13.80684 | 120.04395 | 19359 ft | 429 kts | 53° |
| 2026-05-05 13:34 | 13.82496 | 120.06814 | 18803 ft | 426 kts | 53° |
| 2026-05-05 13:34 | 13.84279 | 120.09191 | 18259 ft | 422 kts | 53° |
| 2026-05-05 13:34 | 13.86066 | 120.11588 | 17698 ft | 418 kts | 54° |
| 2026-05-05 13:34 | 13.87791 | 120.13969 | 17124 ft | 414 kts | 54° |
| 2026-05-05 13:35 | 13.89483 | 120.16331 | 16578 ft | 410 kts | 54° |
| 2026-05-05 13:35 | 13.91165 | 120.18682 | 16151 ft | 402 kts | 54° |
| 2026-05-05 13:35 | 13.92800 | 120.20967 | 15654 ft | 398 kts | 54° |
| 2026-05-05 13:35 | 13.94427 | 120.23239 | 15157 ft | 395 kts | 54° |
| 2026-05-05 13:36 | 13.96058 | 120.25515 | 14623 ft | 390 kts | 54° |
| 2026-05-05 13:36 | 13.97661 | 120.27752 | 14016 ft | 387 kts | 54° |
| 2026-05-05 13:36 | 13.99253 | 120.29973 | 13418 ft | 384 kts | 54° |
| 2026-05-05 13:36 | 14.00824 | 120.32164 | 12892 ft | 380 kts | 54° |
| 2026-05-05 13:37 | 14.02382 | 120.34337 | 12349 ft | 376 kts | 54° |
| 2026-05-05 13:37 | 14.03931 | 120.36498 | 11801 ft | 373 kts | 54° |
| 2026-05-05 13:37 | 14.05446 | 120.38611 | 11291 ft | 369 kts | 55° |
| 2026-05-05 13:37 | 14.06977 | 120.40749 | 10920 ft | 366 kts | 55° |
| 2026-05-05 13:38 | 14.08487 | 120.42860 | 10660 ft | 365 kts | 55° |
| 2026-05-05 13:38 | 14.09994 | 120.44967 | 10421 ft | 361 kts | 55° |
| 2026-05-05 13:38 | 14.11452 | 120.47005 | 10172 ft | 349 kts | 55° |
| 2026-05-05 13:38 | 14.12859 | 120.48972 | 10035 ft | 333 kts | 55° |
| 2026-05-05 13:39 | 14.14209 | 120.50860 | 9813 ft | 323 kts | 55° |
| 2026-05-05 13:39 | 14.15536 | 120.52716 | 9500 ft | 315 kts | 55° |
| 2026-05-05 13:39 | 14.16815 | 120.54508 | 9134 ft | 308 kts | 55° |
| 2026-05-05 13:39 | 14.18070 | 120.56265 | 8778 ft | 299 kts | 55° |
| 2026-05-05 13:40 | 14.19274 | 120.57949 | 8405 ft | 291 kts | 55° |
| 2026-05-05 13:40 | 14.20472 | 120.59596 | 7993 ft | 281 kts | 51° |
| 2026-05-05 13:40 | 14.21812 | 120.61006 | 7603 ft | 275 kts | 42° |
| 2026-05-05 13:40 | 14.23321 | 120.62196 | 7234 ft | 274 kts | 37° |
| 2026-05-05 13:41 | 14.24876 | 120.63322 | 6878 ft | 272 kts | 36° |
| 2026-05-05 13:41 | 14.26432 | 120.64441 | 6612 ft | 268 kts | 37° |
| 2026-05-05 13:41 | 14.27944 | 120.65530 | 6582 ft | 261 kts | 37° |
| 2026-05-05 13:41 | 14.29405 | 120.66580 | 6584 ft | 245 kts | 37° |
| 2026-05-05 13:42 | 14.30717 | 120.67612 | 6585 ft | 231 kts | 41° |
| 2026-05-05 13:42 | 14.31898 | 120.68648 | 6580 ft | 215 kts | 46° |
| 2026-05-05 13:42 | 14.32841 | 120.69762 | 6568 ft | 200 kts | 55° |
| 2026-05-05 13:42 | 14.33609 | 120.70943 | 6381 ft | 194 kts | 58° |
| 2026-05-05 13:43 | 14.34302 | 120.72118 | 6163 ft | 191 kts | 59° |
| 2026-05-05 13:43 | 14.34979 | 120.73305 | 5918 ft | 191 kts | 60° |
| 2026-05-05 13:43 | 14.35647 | 120.74494 | 5564 ft | 195 kts | 60° |
| 2026-05-05 13:43 | 14.36326 | 120.75714 | 5208 ft | 199 kts | 61° |
| 2026-05-05 13:44 | 14.37018 | 120.76962 | 4863 ft | 203 kts | 61° |
| 2026-05-05 13:44 | 14.37722 | 120.78237 | 4591 ft | 202 kts | 61° |
| 2026-05-05 13:44 | 14.38412 | 120.79488 | 4334 ft | 201 kts | 61° |
| 2026-05-05 13:44 | 14.39095 | 120.80725 | 4080 ft | 199 kts | 61° |
| 2026-05-05 13:45 | 14.39779 | 120.81966 | 3825 ft | 198 kts | 61° |
| 2026-05-05 13:45 | 14.40457 | 120.83192 | 3576 ft | 196 kts | 61° |
| 2026-05-05 13:45 | 14.41129 | 120.84408 | 3325 ft | 194 kts | 61° |
| 2026-05-05 13:45 | 14.41792 | 120.85605 | 3162 ft | 184 kts | 62° |
| 2026-05-05 13:46 | 14.42399 | 120.86701 | 2906 ft | 172 kts | 62° |
| 2026-05-05 13:46 | 14.42967 | 120.87725 | 2682 ft | 159 kts | 62° |
| 2026-05-05 13:46 | 14.43503 | 120.88692 | 2448 ft | 148 kts | 61° |
| 2026-05-05 13:46 | 14.44003 | 120.89594 | 2251 ft | 145 kts | 62° |
| 2026-05-05 13:47 | 14.44502 | 120.90495 | 2064 ft | 144 kts | 62° |
| 2026-05-05 13:47 | 14.45001 | 120.91395 | 1883 ft | 144 kts | 62° |
| 2026-05-05 13:47 | 14.45497 | 120.92288 | 1703 ft | 144 kts | 62° |
| 2026-05-05 13:47 | 14.45997 | 120.93191 | 1529 ft | 143 kts | 61° |
| 2026-05-05 13:48 | 14.46491 | 120.94082 | 1352 ft | 143 kts | 61° |
| 2026-05-05 13:48 | 14.46989 | 120.94975 | 1168 ft | 143 kts | 62° |
| 2026-05-05 13:48 | 14.47481 | 120.95864 | 986 ft | 142 kts | 61° |
| 2026-05-05 13:48 | 14.47970 | 120.96750 | 794 ft | 142 kts | 63° |
| 2026-05-05 13:49 | 14.48455 | 120.97628 | 639 ft | 142 kts | 62° |
| 2026-05-05 13:49 | 14.48952 | 120.98515 | 463 ft | 142 kts | 60° |
| 2026-05-05 13:49 | 14.49437 | 120.99388 | 280 ft | 140 kts | 62° |
| 2026-05-05 13:49 | 14.49924 | 121.00267 | 102 ft | 139 kts | 60° |
| 2026-05-05 13:50 | 14.50336 | 121.01009 | 82 ft | 80 kts | 59° |
| 2026-05-05 13:50 | 14.50521 | 121.01343 | 82 ft | 41 kts | 59° |
| 2026-05-05 13:50 | 14.50629 | 121.01533 | 82 ft | 22 kts | 61° |
| 2026-05-05 13:50 | 14.50703 | 121.01652 | 82 ft | 18 kts | 51° |
| 2026-05-05 13:51 | 14.50773 | 121.01723 | 82 ft | 13 kts | 41° |
| 2026-05-05 13:51 | 14.50851 | 121.01782 | 82 ft | 13 kts | 26° |
| 2026-05-05 13:51 | 14.50931 | 121.01745 | 82 ft | 13 kts | 312° |
| 2026-05-05 13:51 | 14.51001 | 121.01671 | 82 ft | 14 kts | 316° |
| 2026-05-05 13:52 | 14.51065 | 121.01606 | 82 ft | 11 kts | 314° |
| 2026-05-05 13:52 | 14.51122 | 121.01547 | 82 ft | 10 kts | 315° |
| 2026-05-05 13:52 | 14.51168 | 121.01500 | 82 ft | 4 kts | 315° |
| 2026-05-05 13:52 | 14.51178 | 121.01489 | 82 ft | 0 kts | 315° |
| 2026-05-05 13:56 | 14.51179 | 121.01488 | 82 ft | 0 kts | 315° |
| 2026-05-05 13:57 | 14.51187 | 121.01480 | 82 ft | 2 kts | 315° |
| 2026-05-05 13:57 | 14.51205 | 121.01462 | 82 ft | 4 kts | 316° |
| 2026-05-05 13:57 | 14.51234 | 121.01434 | 82 ft | 6 kts | 322° |
| 2026-05-05 13:57 | 14.51284 | 121.01434 | 82 ft | 8 kts | 33° |
| 2026-05-05 13:58 | 14.51323 | 121.01481 | 82 ft | 8 kts | 52° |
| 2026-05-05 13:58 | 14.51362 | 121.01527 | 82 ft | 8 kts | 41° |
| 2026-05-05 13:58 | 14.51412 | 121.01531 | 82 ft | 8 kts | 319° |
| 2026-05-05 13:58 | 14.51447 | 121.01493 | 82 ft | 3 kts | 314° |
| 2026-05-05 13:59 | 14.51481 | 121.01459 | 82 ft | 3 kts | 315° |
| 2026-05-05 13:59 | 14.51497 | 121.01442 | 82 ft | 3 kts | 315° |
| 2026-05-05 14:00 | 14.51549 | 121.01389 | 82 ft | 6 kts | 314° |
| 2026-05-05 14:00 | 14.51587 | 121.01349 | 82 ft | 8 kts | 314° |
| 2026-05-05 14:00 | 14.51634 | 121.01299 | 82 ft | 10 kts | 315° |
| 2026-05-05 14:00 | 14.51688 | 121.01244 | 82 ft | 11 kts | 315° |
| 2026-05-05 14:01 | 14.51743 | 121.01187 | 82 ft | 11 kts | 315° |
| 2026-05-05 14:01 | 14.51800 | 121.01128 | 82 ft | 11 kts | 314° |
| 2026-05-05 14:01 | 14.51858 | 121.01069 | 82 ft | 11 kts | 315° |
| 2026-05-05 14:01 | 14.51916 | 121.01008 | 82 ft | 12 kts | 315° |
| 2026-05-05 14:02 | 14.51975 | 121.00948 | 82 ft | 11 kts | 315° |
| 2026-05-05 14:02 | 14.52033 | 121.00887 | 82 ft | 11 kts | 314° |
| 2026-05-05 14:02 | 14.52090 | 121.00829 | 82 ft | 11 kts | 315° |
| 2026-05-05 14:02 | 14.52145 | 121.00771 | 82 ft | 10 kts | 317° |
| 2026-05-05 14:03 | 14.52212 | 121.00772 | 82 ft | 10 kts | 17° |
| 2026-05-05 14:03 | 14.52272 | 121.00747 | 82 ft | 9 kts | 311° |
| 2026-05-05 14:03 | 14.52314 | 121.00733 | 82 ft | 6 kts | 27° |
| 2026-05-05 14:03 | 14.52348 | 121.00764 | 82 ft | 6 kts | 45° |
| 2026-05-05 14:04 | 14.52373 | 121.00789 | 82 ft | 2 kts | 44° |
| 2026-05-05 14:04 | 14.52377 | 121.00794 | 82 ft | 0 kts | 45° |